createdAt,value
2022-11-13T00:00:13.168Z,102886.34
2022-11-13T00:00:46.739Z,102892.56
2022-11-13T00:01:10.579Z,102887.19
2022-11-13T00:01:25.215Z,102888.13
2022-11-13T00:01:37.847Z,102892.56
2022-11-13T00:01:50.416Z,102889.88
2022-11-13T00:02:04.011Z,102890.75
2022-11-13T00:02:18.028Z,102894.28
2022-11-13T00:02:33.143Z,102891.59
2022-11-13T00:02:45.884Z,102891.59
2022-11-13T00:02:58.563Z,102892.56
2022-11-13T00:03:11.182Z,102891.72
2022-11-13T00:03:25.108Z,102893.44
2022-11-13T00:03:37.731Z,102894.28
2022-11-13T00:03:50.315Z,102895.25
2022-11-13T00:04:02.884Z,102895.25
2022-11-13T00:04:15.452Z,102888.13
2022-11-13T00:04:28.013Z,102900.63
2022-11-13T00:04:40.585Z,102892.66
2022-11-13T00:04:53.158Z,102887.28
2022-11-13T00:05:07.560Z,102894.41
2022-11-13T00:05:20.579Z,102889.97
2022-11-13T00:05:33.132Z,102889.97
2022-11-13T00:05:45.950Z,102893.50
2022-11-13T00:05:59.717Z,102895.25
2022-11-13T00:06:13.639Z,102892.72
2022-11-13T00:06:26.232Z,102886.41
2022-11-13T00:06:39.860Z,102889.09
2022-11-13T00:06:57.788Z,102890.03
2022-11-13T00:07:11.652Z,102895.34
2022-11-13T00:07:24.361Z,102890.94
2022-11-13T00:07:36.959Z,102895.41
2022-11-13T00:07:49.597Z,102888.25
2022-11-13T00:08:03.167Z,102893.63
2022-11-13T00:08:15.819Z,102889.09
2022-11-13T00:08:28.615Z,102890.94
2022-11-13T00:08:41.758Z,102891.78
2022-11-13T00:08:55.217Z,102893.63
2022-11-13T00:09:11.372Z,102882.88
2022-11-13T00:09:23.975Z,102890.03
2022-11-13T00:09:36.535Z,102890.03
2022-11-13T00:09:49.104Z,102882.94
2022-11-13T00:10:01.755Z,102890.03
2022-11-13T00:10:14.475Z,102890.03
2022-11-13T00:10:27.352Z,102884.66
2022-11-13T00:10:40.087Z,102890.94
2022-11-13T00:10:53.673Z,102888.31
2022-11-13T00:11:10.325Z,102884.66
2022-11-13T00:11:22.985Z,102883.81
2022-11-13T00:11:35.562Z,102890.03
2022-11-13T00:11:48.158Z,102885.56
2022-11-13T00:12:01.762Z,102881.97
2022-11-13T00:12:14.415Z,102884.59
2022-11-13T00:12:27.116Z,102886.41
2022-11-13T00:12:39.709Z,102887.34
2022-11-13T00:12:53.789Z,102882.88
2022-11-13T00:13:06.455Z,102884.59
2022-11-13T00:13:19.042Z,102877.50
2022-11-13T00:13:32.669Z,102883.72
2022-11-13T00:13:45.589Z,102880.19
2022-11-13T00:13:58.180Z,102884.66
2022-11-13T00:14:10.750Z,102876.59
2022-11-13T00:14:23.321Z,102875.66
2022-11-13T00:14:36.034Z,102881.03
2022-11-13T00:14:49.589Z,102882.88
2022-11-13T00:15:02.247Z,102881.91
2022-11-13T00:15:14.887Z,102887.28
2022-11-13T00:15:27.515Z,102881.91
2022-11-13T00:15:40.338Z,102885.44
2022-11-13T00:15:57.318Z,102886.34
2022-11-13T00:16:12.139Z,102884.50
2022-11-13T00:16:25.721Z,102880.97
2022-11-13T00:16:38.347Z,102879.13
2022-11-13T00:16:50.950Z,102881.91
2022-11-13T00:17:03.553Z,102888.13
2022-11-13T00:17:17.523Z,102884.59
2022-11-13T00:17:30.153Z,102882.75
2022-11-13T00:17:42.743Z,102887.28
2022-11-13T00:17:55.333Z,102882.75
2022-11-13T00:18:09.021Z,102889.03
2022-11-13T00:18:21.593Z,102883.72
2022-11-13T00:18:35.580Z,102888.13
2022-11-13T00:18:48.666Z,102890.03
2022-11-13T00:19:01.266Z,102885.56
2022-11-13T00:19:14.912Z,102886.34
2022-11-13T00:19:27.485Z,102886.41
2022-11-13T00:19:40.072Z,102887.28
2022-11-13T00:19:52.655Z,102885.56
2022-11-13T00:20:06.023Z,102894.41
2022-11-13T00:20:19.038Z,102884.66
2022-11-13T00:20:31.703Z,102886.41
2022-11-13T00:20:44.550Z,102883.72
2022-11-13T00:20:58.149Z,102886.41
2022-11-13T00:21:14.062Z,102886.41
2022-11-13T00:21:27.566Z,102882.75
2022-11-13T00:21:40.251Z,102885.44
2022-11-13T00:21:52.864Z,102888.13
2022-11-13T00:22:05.491Z,102876.53
2022-11-13T00:22:18.053Z,102886.41
2022-11-13T00:22:31.633Z,102885.44
2022-11-13T00:22:44.282Z,102880.97
2022-11-13T00:22:56.872Z,102884.50
2022-11-13T00:23:09.448Z,102880.19
2022-11-13T00:23:22.014Z,102881.81
2022-11-13T00:23:35.860Z,102875.66
2022-11-13T00:23:49.947Z,102878.44
2022-11-13T00:24:02.518Z,102873.84
2022-11-13T00:24:15.079Z,102881.91
2022-11-13T00:24:27.782Z,102876.53
2022-11-13T00:24:40.368Z,102881.03
2022-11-13T00:24:52.975Z,102888.13
2022-11-13T00:25:06.035Z,102878.34
2022-11-13T00:25:21.925Z,102882.88
2022-11-13T00:25:35.695Z,102887.28
2022-11-13T00:25:48.542Z,102885.56
2022-11-13T00:26:04.688Z,102886.41
2022-11-13T00:26:20.013Z,102883.72
2022-11-13T00:26:32.610Z,102886.41
2022-11-13T00:26:46.197Z,102883.72
2022-11-13T00:26:58.792Z,102885.44
2022-11-13T00:27:11.362Z,102885.56
2022-11-13T00:27:24.053Z,102875.66
2022-11-13T00:27:36.647Z,102881.97
2022-11-13T00:27:49.256Z,102881.03
2022-11-13T00:28:02.839Z,102885.44
2022-11-13T00:28:15.969Z,102883.72
2022-11-13T00:28:28.893Z,102876.59
2022-11-13T00:28:42.362Z,102882.88
2022-11-13T00:28:55.887Z,102883.72
2022-11-13T00:29:08.980Z,102882.88
2022-11-13T00:29:22.702Z,102887.28
2022-11-13T00:29:35.299Z,102887.28
2022-11-13T00:29:47.878Z,102882.75
2022-11-13T00:30:00.525Z,102881.91
2022-11-13T00:30:18.905Z,102881.03
2022-11-13T00:30:31.963Z,102884.50
2022-11-13T00:30:44.547Z,102880.06
2022-11-13T00:30:59.640Z,102881.91
2022-11-13T00:31:15.074Z,102881.03
2022-11-13T00:31:28.546Z,102882.75
2022-11-13T00:31:41.121Z,102877.38
2022-11-13T00:31:53.755Z,102875.66
2022-11-13T00:32:06.377Z,102873.84
2022-11-13T00:32:20.865Z,102876.53
2022-11-13T00:32:34.457Z,102876.53
2022-11-13T00:32:47.046Z,102882.75
2022-11-13T00:32:59.626Z,102875.66
2022-11-13T00:33:12.327Z,102876.53
2022-11-13T00:33:45.500Z,102873.91
2022-11-13T00:34:19.559Z,102879.28
2022-11-13T00:34:48.530Z,102879.28
2022-11-13T00:35:01.321Z,102881.91
2022-11-13T00:35:14.082Z,102873.91
2022-11-13T00:35:26.753Z,102878.34
2022-11-13T00:35:40.327Z,102876.53
2022-11-13T00:35:53.613Z,102879.28
2022-11-13T00:36:08.561Z,102877.38
2022-11-13T00:36:26.101Z,102877.31
2022-11-13T00:36:39.164Z,102874.69
2022-11-13T00:36:52.697Z,102872.91
2022-11-13T00:37:05.302Z,102877.31
2022-11-13T00:37:17.872Z,102880.84
2022-11-13T00:37:30.465Z,102875.47
2022-11-13T00:37:43.010Z,102881.75
2022-11-13T00:37:55.568Z,102875.47
2022-11-13T00:38:08.135Z,102871.88
2022-11-13T00:38:21.745Z,102877.22
2022-11-13T00:38:34.843Z,102878.09
2022-11-13T00:38:47.413Z,102879.91
2022-11-13T00:38:59.980Z,102877.22
2022-11-13T00:39:12.621Z,102879.91
2022-11-13T00:39:25.230Z,102882.59
2022-11-13T00:39:37.814Z,102877.22
2022-11-13T00:39:54.508Z,102876.38
2022-11-13T00:40:11.600Z,102880.84
2022-11-13T00:40:24.189Z,102874.63
2022-11-13T00:40:36.768Z,102876.38
2022-11-13T00:40:49.368Z,102879.91
2022-11-13T00:41:02.510Z,102879.91
2022-11-13T00:41:16.334Z,102877.22
2022-11-13T00:41:28.941Z,102876.38
2022-11-13T00:41:41.551Z,102882.69
2022-11-13T00:41:54.116Z,102875.47
2022-11-13T00:42:06.722Z,102875.47
2022-11-13T00:42:19.307Z,102876.38
2022-11-13T00:42:31.866Z,102879.06
2022-11-13T00:42:45.459Z,102883.47
2022-11-13T00:42:58.046Z,102878.16
2022-11-13T00:43:10.680Z,102881.63
2022-11-13T00:43:23.371Z,102877.22
2022-11-13T00:43:36.213Z,102879.91
2022-11-13T00:43:48.884Z,102882.59
2022-11-13T00:44:01.465Z,102881.56
2022-11-13T00:44:14.035Z,102878.94
2022-11-13T00:44:27.685Z,102877.13
2022-11-13T00:44:40.256Z,102878.09
2022-11-13T00:44:52.858Z,102877.13
2022-11-13T00:45:09.057Z,102883.38
2022-11-13T00:45:21.635Z,102875.34
2022-11-13T00:45:34.204Z,102875.34
2022-11-13T00:45:47.768Z,102878.00
2022-11-13T00:46:00.357Z,102885.09
2022-11-13T00:46:13.301Z,102876.19
2022-11-13T00:46:25.899Z,102885.09
2022-11-13T00:46:38.687Z,102874.38
2022-11-13T00:46:51.267Z,102876.19
2022-11-13T00:47:05.041Z,102871.69
2022-11-13T00:47:17.637Z,102871.69
2022-11-13T00:47:31.614Z,102877.13
2022-11-13T00:47:44.201Z,102879.72
2022-11-13T00:47:56.770Z,102876.19
2022-11-13T00:48:09.405Z,102877.91
2022-11-13T00:48:22.088Z,102869.97
2022-11-13T00:48:36.417Z,102881.56
2022-11-13T00:48:49.032Z,102878.88
2022-11-13T00:49:01.704Z,102880.69
2022-11-13T00:49:14.307Z,102877.03
2022-11-13T00:49:27.273Z,102882.41
2022-11-13T00:49:39.852Z,102878.88
2022-11-13T00:49:52.446Z,102876.19
2022-11-13T00:50:06.784Z,102880.69
2022-11-13T00:50:19.564Z,102883.38
2022-11-13T00:50:32.147Z,102879.72
2022-11-13T00:50:45.195Z,102876.19
2022-11-13T00:50:57.863Z,102876.19
2022-11-13T00:51:10.471Z,102875.34
2022-11-13T00:51:24.868Z,102879.72
2022-11-13T00:51:37.448Z,102878.88
2022-11-13T00:51:50.035Z,102882.41
2022-11-13T00:52:03.611Z,102880.69
2022-11-13T00:52:16.173Z,102882.41
2022-11-13T00:52:28.738Z,102878.00
2022-11-13T00:52:42.310Z,102877.03
2022-11-13T00:52:54.897Z,102877.03
2022-11-13T00:53:07.483Z,102873.44
2022-11-13T00:53:20.133Z,102872.53
2022-11-13T00:53:32.771Z,102877.91
2022-11-13T00:53:45.390Z,102883.19
2022-11-13T00:53:58.979Z,102875.13
2022-11-13T00:54:11.541Z,102873.44
2022-11-13T00:54:24.130Z,102877.91
2022-11-13T00:54:36.725Z,102876.13
2022-11-13T00:54:49.280Z,102877.84
2022-11-13T00:55:01.880Z,102873.44
2022-11-13T00:55:15.605Z,102873.44
2022-11-13T00:55:28.356Z,102880.59
2022-11-13T00:55:42.115Z,102880.50
2022-11-13T00:55:54.886Z,102878.78
2022-11-13T00:56:08.101Z,102878.78
2022-11-13T00:56:20.809Z,102877.03
2022-11-13T00:56:34.655Z,102876.97
2022-11-13T00:56:47.245Z,102870.75
2022-11-13T00:56:59.831Z,102873.44
2022-11-13T00:57:12.423Z,102873.44
2022-11-13T00:57:25.067Z,102877.91
2022-11-13T00:57:37.646Z,102877.91
2022-11-13T00:57:51.210Z,102871.69
2022-11-13T00:58:04.924Z,102875.22
2022-11-13T00:58:17.865Z,102877.03
2022-11-13T00:58:30.745Z,102874.38
2022-11-13T00:58:43.589Z,102874.38
2022-11-13T00:58:56.167Z,102875.34
2022-11-13T00:59:08.991Z,102877.03
2022-11-13T00:59:22.607Z,102876.19
2022-11-13T00:59:35.194Z,102873.50
2022-11-13T00:59:47.816Z,102877.03
2022-11-13T01:00:00.408Z,102874.38
2022-11-13T01:00:13.314Z,102875.34
2022-11-13T01:00:25.884Z,102877.03
2022-11-13T01:00:39.659Z,102874.38
2022-11-13T01:00:52.265Z,102875.22
2022-11-13T01:01:06.934Z,102881.47
2022-11-13T01:01:20.640Z,102877.84
2022-11-13T01:01:33.266Z,102876.19
2022-11-13T01:01:46.187Z,102880.50
2022-11-13T01:01:58.899Z,102876.97
2022-11-13T01:02:15.264Z,102876.13
2022-11-13T01:02:27.851Z,102879.56
2022-11-13T01:02:41.849Z,102883.19
2022-11-13T01:02:54.432Z,102882.25
2022-11-13T01:03:07.049Z,102882.25
2022-11-13T01:03:19.651Z,102876.78
2022-11-13T01:03:33.249Z,102882.16
2022-11-13T01:03:46.101Z,102882.16
2022-11-13T01:03:58.684Z,102876.78
2022-11-13T01:04:11.280Z,102880.38
2022-11-13T01:04:23.881Z,102879.47
2022-11-13T01:04:36.469Z,102883.97
2022-11-13T01:04:49.029Z,102879.47
2022-11-13T01:05:03.071Z,102882.06
2022-11-13T01:05:15.731Z,102879.47
2022-11-13T01:05:28.544Z,102878.59
2022-11-13T01:05:44.686Z,102875.84
2022-11-13T01:05:57.258Z,102875.84
2022-11-13T01:06:12.172Z,102887.44
2022-11-13T01:06:26.601Z,102883.91
2022-11-13T01:06:40.263Z,102881.22
2022-11-13T01:06:53.261Z,102877.66
2022-11-13T01:07:05.921Z,102879.38
2022-11-13T01:07:18.583Z,102874.03
2022-11-13T01:07:31.248Z,102873.25
2022-11-13T01:07:43.815Z,102873.25
2022-11-13T01:07:56.468Z,102875.00
2022-11-13T01:08:11.623Z,102876.78
2022-11-13T01:08:24.256Z,102877.75
2022-11-13T01:08:36.865Z,102875.91
2022-11-13T01:08:49.853Z,102876.91
2022-11-13T01:09:02.444Z,102876.91
2022-11-13T01:09:15.065Z,102874.22
2022-11-13T01:09:28.621Z,102880.50
2022-11-13T01:09:41.206Z,102879.66
2022-11-13T01:09:54.021Z,102877.84
2022-11-13T01:10:07.935Z,102878.69
2022-11-13T01:10:21.012Z,102879.66
2022-11-13T01:10:34.590Z,102881.38
2022-11-13T01:10:53.448Z,102880.50
2022-11-13T01:11:10.252Z,102876.91
2022-11-13T01:11:26.358Z,102877.84
2022-11-13T01:11:38.932Z,102879.66
2022-11-13T01:11:51.928Z,102883.19
2022-11-13T01:12:05.151Z,102884.06
2022-11-13T01:12:18.016Z,102881.38
2022-11-13T01:12:31.751Z,102885.88
2022-11-13T01:12:44.355Z,102880.50
2022-11-13T01:12:56.869Z,102886.84
2022-11-13T01:13:09.474Z,102878.78
2022-11-13T01:13:22.001Z,102883.19
2022-11-13T01:13:34.555Z,102881.38
2022-11-13T01:13:48.710Z,102881.38
2022-11-13T01:14:02.268Z,102883.28
2022-11-13T01:14:14.802Z,102888.56
2022-11-13T01:14:27.369Z,102882.34
2022-11-13T01:14:39.870Z,102885.03
2022-11-13T01:14:52.449Z,102884.06
2022-11-13T01:15:05.624Z,102888.56
2022-11-13T01:15:18.272Z,102878.78
2022-11-13T01:15:31.825Z,102882.34
2022-11-13T01:15:45.670Z,102885.03
2022-11-13T01:15:58.208Z,102883.19
2022-11-13T01:16:13.555Z,102883.28
2022-11-13T01:16:27.836Z,102876.13
2022-11-13T01:16:40.403Z,102877.91
2022-11-13T01:16:54.215Z,102879.66
2022-11-13T01:17:06.798Z,102882.41
2022-11-13T01:17:19.319Z,102884.16
2022-11-13T01:17:31.945Z,102875.34
2022-11-13T01:17:45.865Z,102881.56
2022-11-13T01:17:58.457Z,102881.47
2022-11-13T01:18:11.692Z,102876.19
2022-11-13T01:18:25.424Z,102878.78
2022-11-13T01:18:38.218Z,102882.41
2022-11-13T01:18:51.027Z,102885.09
2022-11-13T01:19:03.841Z,102879.72
2022-11-13T01:19:16.424Z,102882.41
2022-11-13T01:19:28.957Z,102879.81
2022-11-13T01:19:41.517Z,102880.69
2022-11-13T01:19:55.382Z,102883.38
2022-11-13T01:20:09.065Z,102883.38
2022-11-13T01:20:21.702Z,102885.09
2022-11-13T01:20:34.991Z,102886.06
2022-11-13T01:20:47.553Z,102881.56
2022-11-13T01:21:05.023Z,102881.56
2022-11-13T01:21:20.980Z,102880.69
2022-11-13T01:21:33.516Z,102879.81
2022-11-13T01:21:46.073Z,102880.69
2022-11-13T01:21:58.889Z,102882.41
2022-11-13T01:22:11.511Z,102881.63
2022-11-13T01:22:24.077Z,102878.00
2022-11-13T01:22:37.644Z,102884.25
2022-11-13T01:22:50.349Z,102880.69
2022-11-13T01:23:03.712Z,102884.31
2022-11-13T01:23:16.285Z,102880.69
2022-11-13T01:23:28.815Z,102878.94
2022-11-13T01:23:41.499Z,102879.81
2022-11-13T01:23:55.272Z,102878.09
2022-11-13T01:24:07.983Z,102881.63
2022-11-13T01:24:20.547Z,102873.69
2022-11-13T01:24:33.118Z,102881.63
2022-11-13T01:24:45.728Z,102877.13
2022-11-13T01:24:59.055Z,102879.81
2022-11-13T01:25:12.583Z,102881.63
2022-11-13T01:25:25.528Z,102872.66
2022-11-13T01:25:38.071Z,102886.06
2022-11-13T01:25:50.651Z,102881.56
2022-11-13T01:26:09.175Z,102876.25
2022-11-13T01:26:23.789Z,102880.69
2022-11-13T01:26:37.359Z,102878.94
2022-11-13T01:26:49.971Z,102871.75
2022-11-13T01:27:02.859Z,102876.25
2022-11-13T01:27:15.994Z,102880.69
2022-11-13T01:27:28.569Z,102874.44
2022-11-13T01:27:42.189Z,102878.94
2022-11-13T01:27:54.763Z,102874.44
2022-11-13T01:28:07.339Z,102872.72
2022-11-13T01:28:19.864Z,102876.25
2022-11-13T01:28:32.401Z,102880.69
2022-11-13T01:28:45.517Z,102880.69
2022-11-13T01:29:00.489Z,102869.97
2022-11-13T01:29:13.145Z,102872.66
2022-11-13T01:29:25.673Z,102872.66
2022-11-13T01:29:38.362Z,102878.94
2022-11-13T01:29:50.974Z,102869.97
2022-11-13T01:30:04.420Z,102875.34
2022-11-13T01:30:17.547Z,102872.66
2022-11-13T01:30:31.087Z,102875.34
2022-11-13T01:30:43.669Z,102870.81
2022-11-13T01:30:56.188Z,102879.81
2022-11-13T01:31:11.363Z,102878.78
2022-11-13T01:31:26.506Z,102881.47
2022-11-13T01:31:39.052Z,102879.72
2022-11-13T01:31:51.575Z,102878.78
2022-11-13T01:32:05.700Z,102880.50
2022-11-13T01:32:18.237Z,102880.50
2022-11-13T01:32:30.925Z,102876.00
2022-11-13T01:32:44.804Z,102883.13
2022-11-13T01:32:57.361Z,102880.44
2022-11-13T01:33:09.877Z,102877.84
2022-11-13T01:33:22.453Z,102876.13
2022-11-13T01:33:35.062Z,102882.25
2022-11-13T01:33:49.670Z,102879.56
2022-11-13T01:34:02.200Z,102881.38
2022-11-13T01:34:14.752Z,102875.13
2022-11-13T01:34:27.336Z,102882.25
2022-11-13T01:34:39.906Z,102876.00
2022-11-13T01:34:53.430Z,102872.47
2022-11-13T01:35:06.594Z,102875.13
2022-11-13T01:35:19.128Z,102876.00
2022-11-13T01:35:31.683Z,102876.00
2022-11-13T01:35:44.233Z,102876.91
2022-11-13T01:36:00.903Z,102874.22
2022-11-13T01:36:15.287Z,102874.22
2022-11-13T01:36:30.601Z,102874.28
2022-11-13T01:36:43.134Z,102876.00
2022-11-13T01:36:55.691Z,102870.63
2022-11-13T01:37:08.484Z,102868.91
2022-11-13T01:37:21.055Z,102869.84
2022-11-13T01:37:33.605Z,102867.09
2022-11-13T01:37:46.158Z,102866.31
2022-11-13T01:37:59.668Z,102875.13
2022-11-13T01:38:12.249Z,102874.28
2022-11-13T01:38:24.955Z,102868.06
2022-11-13T01:38:38.047Z,102866.31
2022-11-13T01:38:51.599Z,102868.06
2022-11-13T01:39:04.258Z,102866.22
2022-11-13T01:39:17.755Z,102865.38
2022-11-13T01:39:30.315Z,102868.06
2022-11-13T01:39:42.853Z,102867.16
2022-11-13T01:39:55.413Z,102861.78
2022-11-13T01:40:10.572Z,102868.06
2022-11-13T01:40:23.183Z,102873.44
2022-11-13T01:40:35.707Z,102861.78
2022-11-13T01:40:48.523Z,102871.69
2022-11-13T01:41:02.322Z,102855.56
2022-11-13T01:41:23.370Z,102861.78
2022-11-13T01:41:36.456Z,102860.94
2022-11-13T01:41:49.037Z,102862.69
2022-11-13T01:42:02.745Z,102865.38
2022-11-13T01:42:15.610Z,102858.25
2022-11-13T01:42:28.143Z,102856.41
2022-11-13T01:42:40.803Z,102860.00
2022-11-13T01:42:53.369Z,102861.72
2022-11-13T01:43:22.762Z,102862.69
2022-11-13T01:43:37.020Z,102857.31
2022-11-13T01:43:51.009Z,102857.31
2022-11-13T01:44:04.107Z,102857.31
2022-11-13T01:44:18.564Z,102860.00
2022-11-13T01:44:48.025Z,102857.31
2022-11-13T01:45:03.445Z,102860.84
2022-11-13T01:46:07.601Z,102856.41
2022-11-13T01:46:25.820Z,102857.31
2022-11-13T01:46:41.058Z,102862.69
2022-11-13T01:46:56.588Z,102851.94
2022-11-13T01:47:09.939Z,102855.56
2022-11-13T01:47:23.963Z,102854.78
2022-11-13T01:47:36.547Z,102860.94
2022-11-13T01:47:51.479Z,102862.69
2022-11-13T01:48:05.192Z,102858.16
2022-11-13T01:48:17.765Z,102859.09
2022-11-13T01:48:36.597Z,102854.63
2022-11-13T01:48:53.251Z,102857.31
2022-11-13T01:49:20.685Z,102852.88
2022-11-13T01:49:37.952Z,102858.16
2022-11-13T01:49:53.906Z,102857.31
2022-11-13T01:50:10.535Z,102850.19
2022-11-13T01:50:23.483Z,102851.94
2022-11-13T01:50:36.071Z,102859.09
2022-11-13T01:50:48.762Z,102858.25
2022-11-13T01:51:01.397Z,102855.56
2022-11-13T01:51:18.043Z,102862.69
2022-11-13T01:51:33.593Z,102856.41
2022-11-13T01:51:49.598Z,102860.00
2022-11-13T01:52:05.132Z,102859.09
2022-11-13T01:52:22.561Z,102859.09
2022-11-13T01:52:38.781Z,102864.47
2022-11-13T01:52:51.309Z,102863.63
2022-11-13T01:53:04.517Z,102862.69
2022-11-13T01:53:17.220Z,102860.94
2022-11-13T01:53:30.032Z,102857.31
2022-11-13T01:53:45.665Z,102860.94
2022-11-13T01:54:00.390Z,102865.38
2022-11-13T01:54:18.331Z,102863.53
2022-11-13T01:54:36.369Z,102861.91
2022-11-13T01:54:51.104Z,102862.69
2022-11-13T01:55:08.656Z,102859.22
2022-11-13T01:55:21.277Z,102860.06
2022-11-13T01:55:33.865Z,102864.47
2022-11-13T01:55:47.071Z,102861.91
2022-11-13T01:55:59.799Z,102860.94
2022-11-13T01:56:15.097Z,102852.00
2022-11-13T01:56:27.662Z,102862.69
2022-11-13T01:56:40.963Z,102860.94
2022-11-13T01:56:54.859Z,102859.22
2022-11-13T01:57:07.479Z,102863.63
2022-11-13T01:57:21.926Z,102866.31
2022-11-13T01:57:35.321Z,102859.22
2022-11-13T01:57:47.944Z,102864.47
2022-11-13T01:58:02.186Z,102861.00
2022-11-13T01:58:15.174Z,102865.44
2022-11-13T01:58:28.149Z,102865.44
2022-11-13T01:58:44.367Z,102859.22
2022-11-13T01:59:02.828Z,102862.75
2022-11-13T01:59:19.090Z,102860.06
2022-11-13T01:59:35.163Z,102859.22
2022-11-13T01:59:50.653Z,102856.53
2022-11-13T02:00:09.047Z,102862.84
2022-11-13T02:00:21.771Z,102856.53
2022-11-13T02:00:35.629Z,102857.66
2022-11-13T02:00:48.237Z,102859.22
2022-11-13T02:01:00.841Z,102857.47
2022-11-13T02:01:13.372Z,102857.47
2022-11-13T02:01:26.147Z,102859.22
2022-11-13T02:01:39.303Z,102859.22
2022-11-13T02:01:52.194Z,102863.69
2022-11-13T02:02:06.203Z,102859.22
2022-11-13T02:02:19.254Z,102862.84
2022-11-13T02:02:31.859Z,102856.59
2022-11-13T02:02:44.701Z,102863.69
2022-11-13T02:02:58.603Z,102859.22
2022-11-13T02:03:11.590Z,102859.28
2022-11-13T02:03:24.183Z,102852.09
2022-11-13T02:03:37.236Z,102852.09
2022-11-13T02:03:50.801Z,102856.53
2022-11-13T02:04:03.518Z,102853.06
2022-11-13T02:04:16.158Z,102854.69
2022-11-13T02:04:29.603Z,102857.47
2022-11-13T02:04:42.493Z,102856.53
2022-11-13T02:04:55.059Z,102854.78
2022-11-13T02:05:09.261Z,102861.00
2022-11-13T02:05:21.931Z,102862.84
2022-11-13T02:05:35.586Z,102857.47
2022-11-13T02:05:48.184Z,102855.63
2022-11-13T02:06:01.406Z,102853.84
2022-11-13T02:06:14.273Z,102854.78
2022-11-13T02:06:32.334Z,102853.84
2022-11-13T02:06:50.140Z,102847.69
2022-11-13T02:07:05.955Z,102850.38
2022-11-13T02:07:21.802Z,102850.38
2022-11-13T02:07:34.522Z,102853.06
2022-11-13T02:07:47.582Z,102855.75
2022-11-13T02:08:00.918Z,102847.69
2022-11-13T02:08:13.583Z,102852.09
2022-11-13T02:08:27.577Z,102852.09
2022-11-13T02:08:40.759Z,102845.84
2022-11-13T02:08:53.576Z,102852.09
2022-11-13T02:09:06.869Z,102846.81
2022-11-13T02:09:22.318Z,102845.84
2022-11-13T02:09:38.290Z,102853.06
2022-11-13T02:09:54.896Z,102854.00
2022-11-13T02:10:08.818Z,102850.38
2022-11-13T02:10:21.400Z,102848.63
2022-11-13T02:10:33.992Z,102844.16
2022-11-13T02:10:47.625Z,102845.94
2022-11-13T02:11:01.362Z,102851.31
2022-11-13T02:11:14.084Z,102851.31
2022-11-13T02:11:27.061Z,102848.63
2022-11-13T02:11:40.019Z,102847.75
2022-11-13T02:11:53.400Z,102846.91
2022-11-13T02:12:08.872Z,102846.91
2022-11-13T02:12:28.429Z,102854.00
2022-11-13T02:12:43.084Z,102842.41
2022-11-13T02:12:56.401Z,102850.38
2022-11-13T02:13:10.111Z,102853.13
2022-11-13T02:13:23.185Z,102845.06
2022-11-13T02:13:37.877Z,102846.91
2022-11-13T02:13:50.561Z,102851.31
2022-11-13T02:14:05.616Z,102852.28
2022-11-13T02:14:20.171Z,102847.75
2022-11-13T02:14:34.521Z,102847.75
2022-11-13T02:14:53.682Z,102853.13
2022-11-13T02:15:07.921Z,102852.19
2022-11-13T02:15:25.307Z,102847.75
2022-11-13T02:15:38.954Z,102851.31
2022-11-13T02:15:52.876Z,102854.97
2022-11-13T02:16:08.225Z,102855.75
2022-11-13T02:16:22.781Z,102854.00
2022-11-13T02:16:37.159Z,102851.31
2022-11-13T02:16:52.570Z,102851.31
2022-11-13T02:17:10.069Z,102849.59
2022-11-13T02:17:26.732Z,102855.81
2022-11-13T02:17:45.085Z,102848.63
2022-11-13T02:18:01.590Z,102852.19
2022-11-13T02:18:15.440Z,102852.28
2022-11-13T02:18:31.189Z,102854.97
2022-11-13T02:18:44.848Z,102854.88
2022-11-13T02:18:57.948Z,102857.66
2022-11-13T02:19:16.274Z,102848.63
2022-11-13T02:19:33.104Z,102853.13
2022-11-13T02:19:50.739Z,102852.28
2022-11-13T02:20:05.757Z,102854.00
2022-11-13T02:20:24.073Z,102857.56
2022-11-13T02:20:44.853Z,102862.94
2022-11-13T02:21:06.209Z,102855.81
2022-11-13T02:21:32.673Z,102849.50
2022-11-13T02:21:54.573Z,102862.94
2022-11-13T02:22:14.433Z,102860.25
2022-11-13T02:22:34.000Z,102854.97
2022-11-13T02:22:52.173Z,102854.00
2022-11-13T02:23:15.335Z,102854.88
2022-11-13T02:23:36.439Z,102857.56
2022-11-13T02:23:55.790Z,102859.28
2022-11-13T02:24:21.219Z,102845.00
2022-11-13T02:24:43.268Z,102860.25
2022-11-13T02:25:00.274Z,102852.09
2022-11-13T02:25:14.162Z,102858.31
2022-11-13T02:25:28.138Z,102849.41
2022-11-13T02:25:42.124Z,102856.53
2022-11-13T02:25:54.980Z,102859.22
2022-11-13T02:26:09.892Z,102852.00
2022-11-13T02:26:26.356Z,102859.22
2022-11-13T02:26:39.967Z,102854.69
2022-11-13T02:26:56.937Z,102852.94
2022-11-13T02:27:17.160Z,102860.06
2022-11-13T02:27:34.855Z,102855.56
2022-11-13T02:27:49.328Z,102854.78
2022-11-13T02:28:03.023Z,102849.41
2022-11-13T02:28:16.103Z,102854.69
2022-11-13T02:28:29.020Z,102850.25
2022-11-13T02:28:41.890Z,102856.53
2022-11-13T02:28:54.630Z,102853.06
2022-11-13T02:29:07.418Z,102853.91
2022-11-13T02:29:21.022Z,102854.78
2022-11-13T02:29:33.610Z,102850.38
2022-11-13T02:29:46.206Z,102853.06
2022-11-13T02:29:58.781Z,102855.75
2022-11-13T02:30:16.129Z,102858.44
2022-11-13T02:30:31.619Z,102856.69
2022-11-13T02:30:44.286Z,102855.75
2022-11-13T02:30:56.892Z,102854.00
2022-11-13T02:31:11.479Z,102855.75
2022-11-13T02:31:24.091Z,102850.38
2022-11-13T02:31:36.977Z,102854.00
2022-11-13T02:31:49.571Z,102847.75
2022-11-13T02:32:02.210Z,102852.09
2022-11-13T02:32:14.794Z,102849.50
2022-11-13T02:32:27.359Z,102855.63
2022-11-13T02:32:44.149Z,102853.06
2022-11-13T02:32:58.314Z,102858.44
2022-11-13T02:33:23.613Z,102853.13
2022-11-13T02:33:36.714Z,102849.41
2022-11-13T02:33:49.307Z,102851.22
2022-11-13T02:34:02.295Z,102856.59
2022-11-13T02:34:15.884Z,102846.81
2022-11-13T02:34:28.529Z,102847.69
2022-11-13T02:34:41.274Z,102852.09
2022-11-13T02:34:53.859Z,102847.56
2022-11-13T02:35:07.063Z,102852.09
2022-11-13T02:35:22.566Z,102846.72
2022-11-13T02:35:38.570Z,102842.31
2022-11-13T02:35:52.871Z,102852.09
2022-11-13T02:36:07.245Z,102852.94
2022-11-13T02:36:21.835Z,102848.47
2022-11-13T02:36:35.891Z,102851.16
2022-11-13T02:36:49.262Z,102852.88
2022-11-13T02:37:02.966Z,102843.09
2022-11-13T02:37:15.537Z,102846.72
2022-11-13T02:37:28.120Z,102846.72
2022-11-13T02:37:40.805Z,102839.63
2022-11-13T02:37:55.419Z,102847.56
2022-11-13T02:38:07.987Z,102847.56
2022-11-13T02:38:21.039Z,102848.47
2022-11-13T02:38:35.114Z,102850.19
2022-11-13T02:38:48.307Z,102844.91
2022-11-13T02:39:05.267Z,102847.50
2022-11-13T02:39:20.182Z,102845.78
2022-11-13T02:39:32.760Z,102847.50